Weather at Kiryat Shmona Airport

Public forecast

Using degrees Celsius for public forecast. Weather courtesy of forecast.io.

Closest aviation weather report (METAR) to Kiryat Shmona Airport

Closest report is Rosh Pina Airport, 14.2 nm (26.3 km) S.

2022/11/27 08:50 (retrieved 30 minutes ago)

LLIB 270850Z AUTO 06009KT 020V100 CAVOK 18/09 Q1018

Closest aviation forecast (TAF) to Kiryat Shmona Airport

Closest forecast is Rosh Pina Airport, 14.2 nm (26.3 km) S.

2022/11/27 06:06 (retrieved 3 hours ago)

TAF LLIB 270500Z 2706/2806 VRB03KT CAVOK BECMG 2708/2710 05007KT 9999 SCT040 TX21/2712Z TN16/2804Z